Some1SomeWhere Games - Total: 370
1
Rank Song Name Score PGAMB Combo Time
83 Blue Streaks of Happiness [SR] 848,025 922 - 25 - 0 - 3 - 1 335 2026-08-24 17:14:15
290 Cortex Charger [PB] 237,285 171 - 9 - 0 - 4 - 0 142 2026-08-24 17:12:54
239 Gamma Stop Giving Me Hard Bags [SR] 1,755,590 1,138 - 0 - 0 - 1 - 0 1,130 2026-08-24 17:12:20
92 endleSSStation (Frums Shuuden Bootleg) 188,100 122 - 2 - 0 - 5 - 0 122 2026-08-23 23:05:01
74 endleSSStation (Frums Shuuden Bootleg) 1,101,480 709 - 2 - 0 - 0 - 1 711 2026-08-23 23:04:48
81 endleSSStation (Frums Shuuden Bootleg) 763,875 492 - 1 - 0 - 0 - 0 493 2026-08-23 23:04:06
81 endleSSStation (Frums Shuuden Bootleg) 698,040 457 - 0 - 0 - 1 - 0 447 2026-08-23 23:03:23
75 endleSSStation (Frums Shuuden Bootleg) 983,975 634 - 1 - 0 - 0 - 0 635 2026-08-23 23:02:50
72 endleSSStation (Frums Shuuden Bootleg) 1,163,115 754 - 5 - 0 - 16 - 0 752 2026-08-23 23:02:09
93 endleSSStation (Frums Shuuden Bootleg) 151,625 97 - 1 - 0 - 0 - 0 98 2026-08-23 23:01:20
207 Real Ultimate Power 1,412,720 910 - 2 - 0 - 1 - 1 912 2026-08-23 23:00:42
31 Winnipeg As Mandatory Scat Feed 2,276,675 1,468 - 1 - 0 - 0 - 0 1,469 2026-08-23 22:58:55
194 Symphonies Of Suckness [PB] 2,908,800 1,875 - 2 - 0 - 0 - 0 1,877 2026-08-23 22:57:05
943 Wanderflux 63,275 40 - 1 - 0 - 0 - 0 41 2026-08-23 22:54:12
347 PEACE BREAKER 1,393,680 896 - 3 - 1 - 0 - 0 900 2026-08-23 22:53:54
184 Gamma Stop Sending Me Ratchet and Clank Videos to Sample 3,650,890 2,362 - 4 - 0 - 1 - 0 2,351 2026-08-23 22:52:15
477 Gamma Stop Sending Me Ratchet and Clank Videos to Sample 156,715 105 - 1 - 0 - 1 - 0 99 2026-08-23 22:49:36
326 Gamma Stop Sending Me Ratchet and Clank Videos to Sample 641,700 414 - 0 - 0 - 0 - 0 414 2026-08-23 22:49:12
531 Gamma Stop Sending Me Ratchet and Clank Videos to Sample 51,150 33 - 0 - 0 - 0 - 0 33 2026-08-23 22:48:24
542 Gamma Stop Sending Me Ratchet and Clank Videos to Sample 10,640 9 - 0 - 0 - 1 - 0 6 2026-08-23 22:48:08
162 OWA Raged at Home Run Derby 67,925 43 - 1 - 0 - 0 - 0 44 2026-08-23 22:47:47
68 Clex3 [PB] 110,050 71 - 0 - 0 - 0 - 0 71 2026-08-23 22:46:40
296 Fury [SR] 989,865 638 - 1 - 0 - 1 - 0 639 2026-08-23 22:46:03
235 Neko Nadetai [PB] 1,021,090 678 - 5 - 1 - 4 - 0 648 2026-08-23 22:44:57
398 That's Gonna Be [SR] 579,465 430 - 1 - 0 - 1 - 0 343 2026-08-23 22:44:05
51 Kyuukou [SR] 1,330,605 856 - 3 - 0 - 0 - 1 859 2026-08-23 22:43:18
201 STRONG 280 908,025 585 - 1 - 0 - 0 - 0 586 2026-08-23 22:42:03
1,334 Hello (BPM) 2021 351,750 222 - 6 - 0 - 0 - 0 228 2026-08-23 22:40:48
108 END OF SYSTEM 2,953,150 2,032 - 10 - 2 - 1 - 0 1,833 2026-08-23 22:39:46
100 Reluctantly Accepting Temporary Overexhaustion [PB] 2,224,530 1,588 - 10 - 0 - 2 - 0 1,349 2026-08-23 22:37:32
331 Gamma Stop Sending Me High Quality Rips [SR] 1,732,590 1,117 - 2 - 0 - 1 - 0 1,118 2026-08-23 22:34:39
19 Love Song [Negradolna] [PB] 3,504,090 2,386 - 4 - 0 - 1 - 0 2,191 2026-08-23 22:30:26
57 Monument [SR] 1,517,105 976 - 7 - 0 - 2 - 0 979 2026-08-23 22:24:36
161 OWA Raged at Home Run Derby 95,825 61 - 1 - 0 - 0 - 0 62 2026-08-23 22:23:13
19 Tool-Assisted Speedcore (TQBF Frame Advance RMX) [FC] [PB] 5,499,850 3,545 - 4 - 0 - 0 - 0 3,549 2026-08-23 22:18:27
1,594 Powerflux [SR] 234,740 150 - 2 - 0 - 1 - 0 152 2026-08-23 22:13:58
47 Yuushitessen [PB] 1,664,790 1,080 - 4 - 0 - 1 - 0 1,070 2026-08-23 22:13:30
240 Neko Nadetai [SR] 996,780 644 - 8 - 0 - 2 - 0 641 2026-08-23 22:12:16
226 Gamma Stop Sending Me Ratchet and Clank Videos to Sample 1,623,555 1,045 - 3 - 0 - 0 - 1 1,048 2026-08-23 22:11:19
19,428 Death Piano 987,185 897 - 9 - 0 - 2 - 1 492 2026-08-23 22:09:48
148 Love Song [Negradolna] 817,300 524 - 4 - 0 - 0 - 0 528 2026-08-23 22:08:25
203 Hardcore Megamix 371,040 229 - 16 - 0 - 1 - 0 241 2026-08-23 22:06:37
241 Hardcore Megamix 4,260 0 - 3 - 1 - 2 - 0 4 2026-08-23 22:05:38
14 The Little Devil's Heart-Pounding Amusement Park [Oni] [FC] [PB] 4,009,300 2,585 - 2 - 0 - 0 - 0 2,587 2026-08-23 22:03:15
631 The Little Devil's Heart-Pounding Amusement Park [Oni] 51,150 33 - 0 - 0 - 0 - 0 33 2026-08-23 21:59:22
1,003 We Want To Run 123,495 81 - 1 - 0 - 1 - 1 79 2026-08-23 21:58:38
1,024 We Want To Run 20,150 13 - 0 - 0 - 0 - 0 13 2026-08-23 21:55:18
978 We Want To Run 232,500 150 - 0 - 0 - 0 - 0 150 2026-08-23 21:51:36
137 ETERNAL DRAIN v2 1,273,825 821 - 1 - 0 - 0 - 0 822 2026-08-23 21:50:38
111 ETERNAL DRAIN v2 2,721,900 1,756 - 5 - 1 - 1 - 1 1,755 2026-08-23 21:47:47
188 ETERNAL DRAIN v2 37,200 24 - 0 - 0 - 0 - 0 24 2026-08-23 21:46:06
132 ETERNAL DRAIN v2 1,710,925 1,103 - 1 - 0 - 0 - 0 1,104 2026-08-23 21:44:59
70 Time Ache Finale [PB] 1,235,790 801 - 2 - 0 - 1 - 0 795 2026-08-23 21:42:21
642 Odd-22 1,154,820 744 - 2 - 0 - 3 - 0 746 2026-08-23 21:40:58
278 Sinthasomphone 1,677,530 1,079 - 4 - 0 - 0 - 1 1,083 2026-08-23 21:39:03
233 Real Ultimate Power 1,101,775 710 - 1 - 0 - 0 - 0 711 2026-08-23 21:36:20
287 Real Ultimate Power 57,350 37 - 0 - 0 - 0 - 0 37 2026-08-23 21:34:54
119 Crystal Chamber Combustion v2 1,710,320 1,106 - 1 - 1 - 1 - 0 1,102 2026-08-23 21:34:12
126 Crystal Chamber Combustion v2 1,190,850 765 - 4 - 0 - 0 - 0 769 2026-08-23 21:33:09
217 Hardcore Megamix 217,815 147 - 1 - 0 - 1 - 0 137 2026-08-23 21:31:42
225 Hardcore Megamix 138,465 90 - 1 - 0 - 1 - 0 89 2026-08-23 21:31:24
145 ETERNAL DRAIN v2 760,225 488 - 3 - 0 - 0 - 0 491 2026-08-23 21:30:32
209 Robotomy [SR] 2,073,625 1,337 - 1 - 0 - 0 - 0 1,338 2026-08-23 21:29:55
374 J-CORE SLi//CER Technique 1,283,555 824 - 5 - 0 - 0 - 1 829 2026-08-23 21:27:49
525 High-Priestess [PB] 857,875 551 - 3 - 0 - 0 - 0 554 2026-08-23 21:26:37
17 Clockwork Dragon [FC] [PB] 3,227,805 2,080 - 3 - 0 - 0 - 1 2,083 2026-08-23 21:25:16
305 Clockwork Dragon 446,380 288 - 0 - 0 - 0 - 1 288 2026-08-23 21:23:15
28 ETERNAL DRAIN v2 [FC] [PB] 3,584,050 2,309 - 4 - 0 - 0 - 0 2,313 2026-08-23 21:22:07
75 endleSSStation (Frums Shuuden Bootleg) 973,125 627 - 1 - 0 - 0 - 0 628 2026-08-23 21:20:02
91 Time Ache Finale [SR] 73,465 50 - 1 - 0 - 1 - 0 46 2026-08-23 21:17:52
479 !!!Chaos Time!!! (Uncut Ed!t!on) 807,530 521 - 0 - 0 - 0 - 1 521 2026-08-23 21:17:34
701 Odd-22 908,025 585 - 1 - 0 - 0 - 0 586 2026-08-23 21:15:51
111 44 Edit v2 [SR] 903,375 582 - 1 - 0 - 0 - 0 583 2026-08-23 21:14:40
68 Clex3 [SR] 109,775 70 - 1 - 0 - 0 - 0 71 2026-08-23 21:13:30
202 VIS::CRACKED v2 21,700 14 - 0 - 0 - 0 - 0 14 2026-08-23 21:12:45
177 Real Ultimate Power 2,110,640 1,367 - 4 - 0 - 1 - 0 1,358 2026-08-23 21:12:31
268 Real Ultimate Power 490,800 315 - 2 - 0 - 0 - 0 317 2026-08-23 21:11:02
158 Love Song [Negradolna] 455,215 295 - 1 - 0 - 1 - 0 293 2026-08-23 21:09:12
171 Love Song [Negradolna] 235,050 150 - 2 - 0 - 0 - 0 152 2026-08-23 21:08:43
597 The Little Devil's Heart-Pounding Amusement Park [Oni] 216,695 133 - 9 - 0 - 3 - 0 142 2026-08-23 21:08:08
630 The Little Devil's Heart-Pounding Amusement Park [Oni] 54,250 35 - 0 - 0 - 0 - 0 35 2026-08-23 21:06:13
191 Radiata (The Quick Brown Fox 'UV' RMX) [PB] 2,362,165 1,519 - 11 - 0 - 1 - 0 1,524 2026-08-23 21:05:44
368 Radiata (The Quick Brown Fox 'UV' RMX) 505,300 326 - 0 - 0 - 0 - 0 326 2026-08-23 21:03:48
315 Radiata (The Quick Brown Fox 'UV' RMX) 718,650 462 - 2 - 0 - 0 - 0 464 2026-08-23 21:00:04
19 MAXX Nintendo [FC] [PB] 2,677,850 1,726 - 2 - 0 - 0 - 0 1,728 2026-08-23 20:26:48
43 Odd-22 [FC] [PB] 3,497,250 2,253 - 4 - 0 - 0 - 0 2,257 2026-08-23 20:23:58
133 VIS::CRACKED v2 [PB] 1,557,475 1,004 - 1 - 0 - 0 - 0 1,005 2026-08-23 20:19:49
201 VIS::CRACKED v2 [SR] 13,950 9 - 0 - 0 - 0 - 0 9 2026-08-23 20:18:24
128 Angel's Salad ("Le mythe etendu" ver.) [PB] 479,515 381 - 1 - 0 - 1 - 0 270 2026-08-23 20:14:45
181 F.F.R ~FINAL FRONTIER RESOLUTION~ [PB] 1,895,665 1,233 - 3 - 0 - 1 - 0 1,217 2026-08-23 20:13:31
489 !!!Chaos Time!!! (Uncut Ed!t!on) 603,890 503 - 2 - 0 - 1 - 0 327 2026-08-23 20:11:49
773 !!!Chaos Time!!! (Uncut Ed!t!on) 69,750 45 - 0 - 0 - 0 - 0 45 2026-08-23 20:10:15
371 !!!Chaos Time!!! (Uncut Ed!t!on) 1,277,150 830 - 0 - 0 - 1 - 2 821 2026-08-23 20:09:40
177 Endymion 2,350,715 1,545 - 1 - 0 - 1 - 0 1,501 2026-08-23 20:08:13
145 ETERNAL DRAIN v2 759,225 489 - 1 - 0 - 0 - 0 490 2026-08-23 20:06:25
86 endleSSStation (Frums Shuuden Bootleg) 525,175 338 - 1 - 0 - 0 - 0 339 2026-08-23 20:05:52
15 endleSSStation (Frums Shuuden Bootleg) [PB] 3,365,700 2,170 - 2 - 0 - 1 - 2 2,172 2026-08-23 20:04:28
71 endleSSStation (Frums Shuuden Bootleg) 1,304,825 841 - 1 - 0 - 0 - 0 842 2026-08-23 19:59:42
88 endleSSStation (Frums Shuuden Bootleg) 362,700 234 - 0 - 0 - 0 - 0 234 2026-08-23 19:58:00
37 Clockwork Dragon [PB] 2,648,965 2,074 - 7 - 0 - 2 - 2 1,507 2026-08-23 19:55:54
314 Adcar 1,369,650 882 - 2 - 0 - 0 - 0 884 2026-08-23 19:53:45
464 Adcar 0 0 - 0 - 0 - 1 - 1 0 2026-08-23 19:52:01
451 Adcar 38,750 25 - 0 - 0 - 0 - 0 25 2026-08-23 19:51:31
172 ETERNAL DRAIN v2 278,990 186 - 0 - 0 - 1 - 0 177 2026-08-23 19:50:09
699 !!!Chaos Time!!! (Uncut Ed!t!on) 206,150 133 - 0 - 0 - 0 - 0 133 2026-08-23 19:48:57
192 Schwerkraft 1,126,025 724 - 3 - 0 - 0 - 0 727 2026-08-23 19:47:57
263 Schwerkraft 117,800 76 - 0 - 0 - 0 - 0 76 2026-08-23 19:46:59
20 endleSSStation (Frums Shuuden Bootleg) [PB] 3,340,095 2,161 - 9 - 0 - 3 - 0 2,150 2026-08-23 19:43:51
86 endleSSStation (Frums Shuuden Bootleg) 593,265 386 - 1 - 0 - 1 - 0 381 2026-08-23 19:41:48
74 endleSSStation (Frums Shuuden Bootleg) 1,054,045 682 - 1 - 0 - 1 - 1 679 2026-08-23 19:40:56
67 endleSSStation (Frums Shuuden Bootleg) [SR] 1,020,880 1,030 - 0 - 0 - 2 - 0 455 2026-08-23 19:37:41
1,558 Staple on Smile 456,425 292 - 3 - 0 - 0 - 0 295 2026-08-23 19:36:28
500 J-CORE SLi//CER Technique 607,325 391 - 1 - 0 - 0 - 0 392 2026-08-23 19:35:01
80 Tache [SR] 2,515,375 1,622 - 1 - 0 - 0 - 0 1,623 2026-08-23 19:33:42
547 High-Priestess [SR] 737,220 480 - 2 - 0 - 1 - 1 473 2026-08-23 19:29:38
305 Clockwork Dragon 446,380 288 - 0 - 0 - 0 - 1 288 2026-08-23 19:28:37
248 Clockwork Dragon [SR] 1,563,400 1,007 - 2 - 0 - 0 - 0 1,009 2026-08-23 19:17:17
426 !!!Chaos Time!!! (Uncut Ed!t!on) 911,535 618 - 1 - 0 - 2 - 1 572 2026-08-23 18:54:01
669 !!!Chaos Time!!! (Uncut Ed!t!on) 266,580 172 - 0 - 0 - 0 - 1 172 2026-08-23 18:47:44
842 !!!Chaos Time!!! (Uncut Ed!t!on) 5,920 4 - 0 - 0 - 0 - 14 4 2026-08-23 18:16:52
830 !!!Chaos Time!!! (Uncut Ed!t!on) 6,200 4 - 0 - 0 - 0 - 0 4 2026-08-23 18:15:35
425 !!!Chaos Time!!! (Uncut Ed!t!on) 954,450 620 - 0 - 0 - 5 - 0 615 2026-08-23 18:12:07
544 I'm A Fucking Idiot 771,075 495 - 3 - 0 - 0 - 0 498 2026-08-23 18:10:55
75 KATAMARI [SR] 2,332,475 1,504 - 1 - 0 - 0 - 0 1,505 2026-08-23 18:07:53
271 GOODTEK [PB] 2,467,975 1,788 - 1 - 0 - 2 - 4 1,485 2026-08-23 18:05:36
842 GOODTEK 23,250 15 - 0 - 0 - 0 - 0 15 2026-08-23 18:03:26
831 GOODTEK [SR] 96,000 57 - 6 - 0 - 0 - 0 63 2026-08-23 18:03:11
14 Mishnu [FC] [PB] 4,384,400 2,827 - 2 - 0 - 0 - 0 2,829 2026-08-23 01:43:07
26 desocialized vandalism soliloquy if [PB] 2,838,340 2,357 - 12 - 0 - 1 - 0 1,539 2026-08-23 01:39:23
211 Endymion 960,725 619 - 1 - 0 - 0 - 0 620 2026-08-23 01:37:02
246 brute force 1,298,625 837 - 1 - 0 - 0 - 0 838 2026-08-23 01:35:53
222 Radiata (The Quick Brown Fox 'UV' RMX) [PB] 1,829,345 1,180 - 1 - 0 - 3 - 0 1,181 2026-08-23 01:34:54
399 Radiata (The Quick Brown Fox 'UV' RMX) 96,100 62 - 0 - 0 - 0 - 0 62 2026-08-23 01:33:30
405 Radiata (The Quick Brown Fox 'UV' RMX) 21,700 14 - 0 - 0 - 0 - 0 14 2026-08-23 01:33:15
320 Radiata (The Quick Brown Fox 'UV' RMX) 666,490 436 - 0 - 0 - 1 - 0 427 2026-08-23 01:32:57
250 Radiata (The Quick Brown Fox 'UV' RMX) [PB] 1,061,065 801 - 3 - 0 - 1 - 0 620 2026-08-23 01:32:15
29 Sinthasomphone [PB] 2,163,075 1,915 - 4 - 1 - 1 - 1 1,109 2026-08-23 01:30:33
448 !!!Chaos Time!!! (Uncut Ed!t!on) 890,975 574 - 1 - 0 - 0 - 0 575 2026-08-23 01:27:57
11 !!!Chaos Time!!! (Uncut Ed!t!on) [PB] 4,257,260 3,198 - 0 - 0 - 2 - 1 2,499 2026-08-23 01:26:19
24 Schwerkraft [FC] [SR] 3,401,130 2,191 - 4 - 0 - 0 - 1 2,195 2026-08-23 01:21:58
142 ETERNAL DRAIN v2 [SR] 1,032,025 665 - 1 - 0 - 0 - 0 666 2026-08-23 01:19:44
616 Tool-Assisted Speedcore (TQBF Frame Advance RMX) [PB] 1,318,225 848 - 3 - 0 - 0 - 0 851 2026-08-23 01:18:09
428 Wanderflux [SR] 2,416,065 1,560 - 5 - 0 - 1 - 0 1,557 2026-08-23 01:16:11
242 Symphonies Of Suckness [SR] 1,411,090 1,087 - 2 - 0 - 1 - 0 813 2026-08-23 01:14:25
17 Cold Heart v2 [SR] 4,351,820 3,011 - 4 - 0 - 1 - 1 2,695 2026-08-23 01:08:53
11 Critical.Error [FC] [SR] 4,968,475 3,203 - 3 - 0 - 0 - 0 3,206 2026-08-23 01:04:05
410 Sinthasomphone [SR] 363,745 235 - 3 - 0 - 1 - 1 234 2026-08-23 00:58:44
37 The Little Devil's Heart-Pounding Amusement Park [Oni] [SR] 3,264,715 2,580 - 5 - 0 - 2 - 2 1,845 2026-08-23 00:58:00
151 OWA Raged at Home Run Derby [SR] 540,400 347 - 2 - 0 - 0 - 0 349 2026-08-23 00:51:47
7 Xuasar Charge [FC] [SR] 5,003,105 3,227 - 1 - 0 - 0 - 1 3,228 2026-08-23 00:48:40
78 BIBBIDIBA [SR] 856,765 556 - 1 - 0 - 1 - 0 551 2026-08-23 00:44:55
153 END OF SYSTEM 1,563,655 1,008 - 1 - 0 - 0 - 1 1,009 2026-08-23 00:43:31
138 Angel's Salad ("Le mythe etendu" ver.) [SR] 433,485 279 - 0 - 1 - 0 - 1 280 2026-08-23 00:42:02
206 Gamma Stop Sending Me Ratchet and Clank Videos to Sample 2,890,160 1,863 - 2 - 0 - 0 - 2 1,865 2026-08-23 00:40:15
46 MAXX Nintendo [PB] 2,094,770 1,717 - 10 - 0 - 1 - 1 1,148 2026-08-23 00:37:33
16 brute force [FC] [SR] 5,093,945 3,284 - 3 - 0 - 0 - 4 3,287 2026-08-23 00:35:16
70 desocialized vandalism soliloquy if [SR] 2,256,130 1,449 - 8 - 0 - 0 - 1 1,457 2026-08-23 00:31:57
42 Love Song [Negradolna] [SR] 2,959,965 2,371 - 19 - 0 - 1 - 0 1,651 2026-08-23 00:30:16
19 Real Ultimate Power [FC] [SR] 3,192,155 2,057 - 3 - 0 - 0 - 1 2,060 2026-08-23 00:27:27
29 Hardcore Megamix [FC] [PB] 939,750 603 - 4 - 0 - 0 - 0 607 2026-08-23 00:25:01
651 I'm A Fucking Idiot 526,705 339 - 1 - 0 - 0 - 1 340 2026-08-23 00:24:15
289 Radiata (The Quick Brown Fox 'UV' RMX) [SR] 831,800 535 - 2 - 0 - 0 - 0 537 2026-08-23 00:23:30
48 Odd-22 [SR] 3,110,665 2,253 - 3 - 0 - 1 - 0 1,871 2026-08-23 00:21:39
46 Make the Fire Burn [PB] 2,752,955 2,664 - 5 - 0 - 2 - 0 1,287 2026-08-23 00:17:21
1,566 Make the Fire Burn [SR] 66,320 43 - 0 - 0 - 1 - 1 43 2026-08-23 00:13:19
69 You Universe [SR] 1,495,440 1,525 - 12 - 0 - 5 - 3 655 2026-08-23 00:10:22
48 Yuushitessen [SR] 1,093,810 1,035 - 15 - 1 - 2 - 0 521 2026-08-23 00:08:02
30 Crystal Chamber Combustion v2 [PB] 2,456,015 1,948 - 7 - 0 - 1 - 0 1,383 2026-08-23 00:06:36
150 Crystal Chamber Combustion v2 [SR] 558,890 363 - 2 - 0 - 1 - 0 359 2026-08-23 00:04:57
1,117 Tool-Assisted Speedcore (TQBF Frame Advance RMX) [SR] 195,040 137 - 0 - 0 - 1 - 0 120 2026-08-23 00:04:23
253 MAXX Nintendo [PB] 1,047,655 920 - 1 - 0 - 2 - 0 542 2026-08-23 00:03:10
447 MAXX Nintendo [SR] 97,650 63 - 0 - 0 - 0 - 0 63 2026-08-23 00:02:12
374 Six Acid Strings [SR] 1,634,985 1,177 - 3 - 0 - 7 - 1 989 2026-08-23 00:01:34
4,083 The Disappearance of Hatsune Miku -Theatrical Version- 596,475 384 - 1 - 0 - 0 - 0 385 2026-08-22 23:59:57
41 Endymion [FC] [SR] 3,823,840 2,464 - 2 - 2 - 0 - 1 2,468 2026-08-22 23:58:08
85 We Want To Run [FC] [PB] 4,332,565 2,770 - 29 - 2 - 0 - 1 2,801 2026-08-22 23:55:49
643 We Want To Run [PB] 1,571,405 1,013 - 1 - 0 - 0 - 1 1,014 2026-08-22 23:51:37
14 Revenge (ReeK's "Dude, What's A Genre?" Remix) [PB] 5,279,390 3,837 - 5 - 1 - 1 - 4 3,168 2026-08-22 23:47:18
26 Safely Admitting Jumpstyle Has Not Improved My Life In Any Way [SR] 3,035,830 3,038 - 2 - 0 - 2 - 0 1,365 2026-08-22 23:40:43
505 Exam Cram [Oni] 1,739,645 1,307 - 0 - 1 - 4 - 1 1,022 2026-08-22 23:37:18
9 floating point (Drumcorps Remix) [FC] [PB] 4,192,730 2,705 - 0 - 0 - 0 - 1 2,705 2026-08-22 23:32:04
754 floating point (Drumcorps Remix) 119,350 77 - 0 - 0 - 0 - 0 77 2026-08-22 23:23:54
14 floating point (Drumcorps Remix) [FC] 4,192,650 2,705 - 0 - 0 - 0 - 5 2,705 2026-08-22 23:21:05
615 DIST SQUAD 243,945 163 - 2 - 1 - 1 - 0 154 2026-08-22 23:15:48
597 Pictured as Perfect [SR] 318,040 216 - 2 - 0 - 1 - 0 199 2026-08-22 23:15:22
347 Gamma Stop Sending Me Ratchet and Clank Videos to Sample 556,770 362 - 0 - 0 - 1 - 1 358 2026-08-22 23:14:36
55 END OF SYSTEM [PB] 2,589,930 2,594 - 59 - 1 - 13 - 1 1,151 2026-08-22 23:10:58
196 END OF SYSTEM [PB] 33,150 30 - 0 - 0 - 1 - 2 17 2026-08-22 23:08:23
200 END OF SYSTEM [SR] 6,200 4 - 0 - 0 - 0 - 0 4 2026-08-22 23:08:03
29 silly-willy-nilly [SR] 2,895,065 1,982 - 1 - 0 - 1 - 0 1,805 2026-08-22 19:22:59
119 Fireball [PB] 1,265,855 1,831 - 155 - 0 - 38 - 2 228 2026-08-22 19:17:39
65 where is my balls [PB] 2,393,235 2,447 - 11 - 0 - 2 - 1 1,045 2026-08-22 19:13:27
43 Writing On The Walls (Final Sketch Remix) [1.2x] [FC] 3,979,850 2,566 - 2 - 0 - 0 - 0 2,568 2026-08-22 19:09:20
56 sub/zero [SR] 3,236,405 3,020 - 6 - 1 - 4 - 3 1,575 2026-08-22 19:04:29
272 Mishnu 810,375 522 - 1 - 0 - 0 - 0 523 2026-07-25 21:30:12
228 Mishnu 1,961,315 1,274 - 11 - 0 - 11 - 0 1,261 2026-07-25 21:29:12
333 Mishnu 277,430 179 - 0 - 0 - 0 - 1 179 2026-07-25 21:27:19
270 Mishnu 849,125 547 - 1 - 0 - 0 - 0 548 2026-07-25 21:26:56
307 Mishnu 425,025 253 - 13 - 16 - 0 - 29 282 2026-07-25 21:25:32
47 Mishnu 4,380,465 2,819 - 9 - 0 - 0 - 23 2,828 2026-07-25 21:19:56
287 Mishnu 514,440 332 - 0 - 0 - 0 - 8 332 2026-07-25 21:16:11
195 Mishnu 2,928,885 1,884 - 6 - 1 - 0 - 1 1,891 2026-07-25 21:14:52
288 Mishnu 506,575 326 - 1 - 0 - 0 - 0 327 2026-07-25 21:12:40
369 Mishnu 54,250 35 - 0 - 0 - 0 - 0 35 2026-07-25 21:12:08
331 Mishnu 286,200 183 - 2 - 0 - 0 - 0 185 2026-07-25 21:11:51
359 Mishnu 117,285 74 - 3 - 0 - 4 - 0 77 2026-07-25 21:11:26
311 Mishnu 353,125 227 - 1 - 0 - 0 - 0 228 2026-07-25 21:09:59
31 Mishnu [FC] [PB] 4,382,750 2,821 - 8 - 0 - 0 - 0 2,829 2026-07-25 21:08:41
359 Mishnu 114,150 72 - 2 - 0 - 0 - 0 74 2026-07-25 21:05:21
310 Mishnu 357,500 229 - 2 - 0 - 0 - 0 231 2026-07-25 21:04:39
328 Mishnu 304,730 197 - 0 - 0 - 2 - 0 197 2026-07-25 21:04:10
287 Mishnu 514,360 332 - 0 - 0 - 0 - 12 332 2026-07-25 21:03:37
257 Mishnu 1,011,980 651 - 4 - 0 - 7 - 0 655 2026-07-25 21:02:57
324 Mishnu 314,650 203 - 0 - 0 - 0 - 0 203 2026-07-25 21:01:17
53 Mishnu [PB] 3,893,005 2,808 - 19 - 0 - 2 - 0 2,344 2026-07-25 20:59:48
327 Mishnu 308,175 198 - 1 - 0 - 0 - 0 199 2026-07-25 20:56:23
67 Mishnu [SR] 2,173,650 2,805 - 16 - 0 - 8 - 1 629 2026-07-25 20:55:36
142 Deception 1,141,905 815 - 1 - 0 - 2 - 0 694 2026-07-18 13:45:50
168 Deception 810,065 522 - 1 - 0 - 1 - 0 523 2026-07-18 13:44:38
222 Deception 170,500 110 - 0 - 0 - 0 - 0 110 2026-07-18 13:43:46
123 Deception 1,404,415 1,079 - 1 - 0 - 1 - 0 811 2026-07-18 13:43:07
238 Deception 40,300 26 - 0 - 0 - 0 - 0 26 2026-07-18 13:41:43
110 Deception 1,697,255 1,611 - 3 - 0 - 2 - 0 811 2026-07-18 13:41:25
168 Deception 912,100 12 - 1,006 - 2 - 10 - 8 632 2026-07-18 13:39:10
186 Deception 513,085 331 - 1 - 0 - 4 - 0 332 2026-07-18 13:37:43
144 Deception 1,221,125 787 - 1 - 0 - 0 - 0 788 2026-07-18 13:37:00
201 Deception 323,930 209 - 0 - 0 - 0 - 1 209 2026-07-18 13:35:51
15 Deception 4,866,440 3,325 - 0 - 0 - 1 - 0 3,038 2026-07-18 13:34:29
217 Deception 204,600 132 - 0 - 0 - 0 - 0 132 2026-07-18 13:30:14
123 Deception 1,687,675 1,089 - 1 - 0 - 5 - 0 1,090 2026-07-18 13:29:10
213 Deception 246,450 159 - 0 - 0 - 0 - 0 159 2026-07-18 13:27:38
144 Deception 1,218,025 785 - 1 - 0 - 0 - 0 786 2026-07-17 23:23:01
11 Deception [FC] [PB] 5,155,005 3,325 - 1 - 0 - 0 - 1 3,326 2026-07-17 23:19:37
234 Deception 78,390 54 - 0 - 0 - 1 - 0 49 2026-07-17 23:14:24
20 Deception [PB] 4,865,890 3,323 - 2 - 0 - 1 - 0 3,038 2026-07-17 23:13:09
123 Deception 1,708,100 1,102 - 0 - 0 - 0 - 0 1,102 2026-07-17 23:07:37
195 Deception 341,625 223 - 11 - 4 - 1 - 48 217 2026-07-17 23:04:14
127 Deception 1,553,815 1,007 - 1 - 0 - 1 - 0 1,000 2026-07-17 23:02:56
111 Deception 2,469,600 1,590 - 4 - 0 - 0 - 0 1,594 2026-07-17 23:01:17
114 Deception 2,149,575 1,386 - 1 - 0 - 0 - 0 1,387 2026-07-17 22:59:16
25 Deception [SR] 3,545,100 3,321 - 3 - 1 - 1 - 1 1,718 2026-07-17 22:56:02
103 Reluctantly Accepting Temporary Overexhaustion [SR] 2,063,580 1,587 - 11 - 1 - 1 - 2 1,188 2026-07-12 23:22:31
68 Swamp Thing v2 [1.2x] 2,124,690 1,979 - 2 - 0 - 1 - 0 1,036 2026-07-12 23:18:44
16 Revenge (ReeK's "Dude, What's A Genre?" Remix) [PB] 5,083,080 3,835 - 8 - 0 - 1 - 3 2,972 2026-07-12 23:15:16
1 Swamp Thing [1.2x] [AAA] [FC] 2,850,450 1,839 - 0 - 0 - 0 - 0 1,839 2026-07-12 23:09:02
56 Adcar [PB] 2,983,875 2,883 - 7 - 0 - 2 - 4 1,397 2026-07-12 23:00:56
120 The Disappearance of Hatsune Miku -Theatrical Version- [FC] [PB] 3,035,485 1,951 - 9 - 0 - 0 - 2 1,960 2026-07-12 22:54:33
69 99.9 (Eurobeat Remix) [SR] 2,815,690 2,615 - 11 - 1 - 2 - 1 1,375 2026-07-12 22:50:18
31 Robinet [SR] 3,655,245 2,976 - 5 - 0 - 3 - 0 2,018 2026-07-12 22:46:15
14 Gaviscon [SR] 2,199,025 2,082 - 1 - 0 - 1 - 2 1,054 2026-07-12 22:38:31
1 Ubiquity [AAA] [FC] [SR] 2,571,450 1,659 - 0 - 0 - 0 - 0 1,659 2026-07-12 22:34:29
208 Take [SR] 2,305,915 1,672 - 46 - 1 - 1 - 4 1,374 2026-07-12 22:29:45
214 Hardcore Megamix [SR] 145,690 99 - 2 - 0 - 1 - 0 91 2026-07-12 22:21:23
1,887 Staple on Smile 101,475 63 - 3 - 0 - 0 - 0 66 2026-07-12 22:20:56
724 floating point (Drumcorps Remix) 111,625 98 - 1 - 0 - 5 - 0 59 2026-07-12 22:20:13
365 floating point (Drumcorps Remix) 1,306,630 843 - 0 - 0 - 0 - 1 843 2026-07-12 22:19:20
1 Call me it. (500 Tortures) [AAA] [FC] [SR] 3,451,850 2,227 - 0 - 0 - 0 - 0 2,227 2026-07-12 14:40:23
1 Upshift [AAA] [FC] [PB] 3,323,200 2,144 - 0 - 0 - 0 - 0 2,144 2026-07-12 14:31:48
38 Upshift [SR] 2,275,045 2,142 - 1 - 0 - 1 - 1 1,097 2026-07-12 14:27:23
93 POWA OF DA WILDANES [SR] 2,879,585 3,318 - 43 - 0 - 10 - 2 1,046 2026-07-10 12:00:24
409 Bolt Thrower In A Chinese Restaurant 1,729,500 1,351 - 23 - 1 - 3 - 0 981 2026-07-10 11:57:01
208 Gamma Stop Sending Me Ratchet and Clank Videos to Sample 1,982,535 1,677 - 3 - 0 - 2 - 1 1,060 2026-07-10 11:55:24
32 Gamma Stop Sending Me Ratchet and Clank Videos to Sample [SR] 3,568,445 4,021 - 21 - 0 - 6 - 1 1,353 2026-07-10 11:52:49
224 !!!Chaos Time!!! (Uncut Ed!t!on) [PB] 2,370,125 2,191 - 13 - 0 - 8 - 1 1,164 2026-07-10 11:46:41
376 F.F.R ~FINAL FRONTIER RESOLUTION~ 150,350 97 - 0 - 0 - 0 - 0 97 2026-07-09 22:51:37
95 Staple on Smile [FC] [PB] 3,064,955 1,970 - 9 - 0 - 0 - 1 1,979 2026-07-09 22:45:01
1,880 Staple on Smile 94,740 70 - 2 - 0 - 1 - 0 56 2026-07-09 22:42:15
302 !!!Chaos Time!!! (Uncut Ed!t!on) [SR] 2,309,950 1,487 - 4 - 0 - 0 - 0 1,491 2026-07-09 22:38:03
13 floating point (Drumcorps Remix) [FC] [PB] 4,192,690 2,705 - 0 - 0 - 0 - 3 2,705 2026-07-09 22:31:46
698 floating point (Drumcorps Remix) 157,440 125 - 0 - 0 - 1 - 0 89 2026-07-09 22:27:20
90 Break The Silence [PB] 3,076,105 3,082 - 29 - 0 - 3 - 2 1,374 2026-07-09 22:23:23
425 Break The Silence [SR] 1,036,000 668 - 9 - 1 - 3 - 0 667 2026-07-09 22:19:58
1,350 cold (Kurorak's Bootleg) 990,330 634 - 6 - 0 - 0 - 1 640 2026-07-09 22:18:50
387 Happy Arnold=) 1,349,330 1,456 - 20 - 0 - 3 - 2 544 2026-07-09 22:17:43
1,079 Happy Arnold=) 141,775 89 - 3 - 0 - 0 - 0 92 2026-07-09 22:15:41
1,026 Happy Arnold=) 182,350 116 - 2 - 0 - 0 - 0 118 2026-07-09 22:15:28
1,114 Happy Arnold=) 118,525 74 - 3 - 0 - 0 - 0 77 2026-07-09 22:14:54
476 Happy Arnold=) 1,650,265 1,063 - 7 - 0 - 1 - 0 1,064 2026-07-09 22:14:24
1,179 Happy Arnold=) 65,100 42 - 0 - 0 - 0 - 0 42 2026-07-09 22:13:05
577 Happy Arnold=) 939,265 761 - 12 - 1 - 2 - 1 518 2026-07-09 22:12:35
627 Happy Arnold=) 881,240 658 - 6 - 0 - 1 - 0 518 2026-07-09 22:10:18
12,852 do i smile? 6,120 4 - 0 - 0 - 0 - 4 4 2026-07-09 22:09:07
41 do i smile? [FC] [PB] 3,273,010 2,110 - 2 - 0 - 0 - 2 2,112 2026-07-09 22:08:22
12,513 do i smile? [PB] 44,950 29 - 0 - 0 - 0 - 0 29 2026-07-09 22:05:13
12,864 do i smile? [SR] 6,000 4 - 0 - 0 - 0 - 10 4 2026-07-09 22:04:41
57 Brrrreeed Cicadididi [PB] 3,133,040 2,645 - 2 - 2 - 1 - 3 1,678 2026-07-09 22:01:38
140 Exam Cram [Oni] [SR] 1,836,330 1,567 - 4 - 0 - 2 - 0 974 2026-07-09 21:56:10
175 STRONG 280 [SR] 1,011,340 661 - 4 - 0 - 1 - 0 647 2026-04-18 12:29:17
246 Magical 8bit Tour [PB] 2,039,610 1,861 - 12 - 0 - 4 - 0 1,014 2026-04-18 12:27:18
269 Magical 8bit Tour [SR] 1,993,750 1,860 - 12 - 0 - 5 - 0 969 2026-04-18 12:24:02
108 Illegal Trap [PB] 2,573,285 2,296 - 15 - 0 - 2 - 1 1,307 2026-04-18 12:19:50
57 Happy Arnold=) [FC] [SR] 3,574,435 2,302 - 5 - 0 - 0 - 2 2,307 2026-04-17 19:40:17
234 Mdrqnxtagon 1,265,540 902 - 10 - 0 - 1 - 0 767 2026-03-30 15:41:48
507 DIST SQUAD [SR] 335,765 247 - 36 - 9 - 30 - 9 199 2026-03-30 15:32:04
706 We Want To Run [1.2x] 716,785 580 - 13 - 0 - 9 - 0 397 2026-02-23 23:29:09
38 Braindead [SR] 2,776,950 3,418 - 18 - 0 - 6 - 2 894 2026-02-23 23:27:47
108 VIS::CRACKED [SR] 2,503,795 2,536 - 11 - 0 - 3 - 5 1,107 2026-02-23 23:23:03
256 The Bird's Snapshot Lifespan [SR] 1,912,445 1,733 - 13 - 0 - 4 - 2 957 2026-02-23 23:17:44
93 The Wises Were Wrong [SR] 2,495,690 1,621 - 56 - 0 - 10 - 8 1,592 2026-02-23 23:14:11
358 Largiloquent Dithyramb [SR] 2,252,055 1,594 - 5 - 0 - 6 - 8 1,376 2026-02-23 23:10:30
600 Brrrreeed Cicadididi [SR] 660,935 558 - 1 - 0 - 4 - 0 355 2026-02-23 23:06:01
205 F.F.R ~FINAL FRONTIER RESOLUTION~ [SR] 1,180,095 814 - 14 - 3 - 2 - 0 729 2026-02-22 21:33:20
48 PEACE BREAKER [PB] 3,569,185 3,582 - 34 - 1 - 4 - 4 1,591 2026-02-22 21:29:58
4 Winnipeg As Mandatory Scat Feed [PB] 7,138,055 5,615 - 21 - 0 - 3 - 2 4,045 2026-02-22 21:23:20
68 Mario-chi Survivor [Oni] [SR] 2,491,915 3,056 - 25 - 0 - 12 - 2 808 2026-02-22 21:14:19
96 Adcar [PB] 2,558,335 2,866 - 19 - 0 - 7 - 1 979 2026-02-22 21:09:18
104 cold (Kurorak's Bootleg) [SR] 1,794,085 1,734 - 15 - 0 - 2 - 6 837 2026-02-22 21:02:32
99 where is my balls [SR] 2,441,355 2,440 - 14 - 1 - 5 - 0 1,097 2026-02-22 20:59:05
53 Revenge (ReeK's "Dude, What's A Genre?" Remix) [SR] 3,652,750 3,816 - 21 - 1 - 6 - 1 1,550 2026-02-21 21:06:19
686 Zygourous Distribution [SR] 181,075 116 - 1 - 0 - 0 - 0 117 2026-02-21 20:59:46
195 res extensa [SR] 440,330 307 - 4 - 0 - 2 - 0 271 2026-02-21 20:59:26
75 Bolt Thrower In A Chinese Restaurant [PB] 2,711,335 3,137 - 90 - 1 - 38 - 2 973 2026-02-21 20:50:30
1,029 Bolt Thrower In A Chinese Restaurant [SR] 21,700 14 - 0 - 0 - 0 - 0 14 2026-02-21 20:46:53
4,388 Fireball [SR] 242,935 250 - 19 - 0 - 9 - 0 103 2026-02-21 20:45:55
1,874 Death Piano v2 [SR] 443,240 301 - 0 - 0 - 1 - 0 278 2026-02-21 20:44:49
83 I'm A Fucking Idiot [SR] 2,484,460 2,554 - 44 - 4 - 8 - 4 1,070 2026-02-21 20:43:02
159 The Disappearance of Hatsune Miku -Theatrical Version- [PB] 2,672,565 1,946 - 13 - 0 - 1 - 0 1,599 2026-02-21 20:34:37
62 OWA Raged In Vegas (Fuck Bees) [PB] 4,259,765 3,013 - 7 - 0 - 1 - 0 2,601 2026-02-21 20:31:50
95 Mdrqnxtagon [PB] 2,129,910 1,919 - 22 - 0 - 5 - 2 1,070 2026-02-21 20:26:52
1,006 Hello (BPM) 2021 [PB] 398,635 414 - 41 - 0 - 14 - 0 164 2026-02-21 15:32:30
200 Cortex Charger [SR] 171,030 130 - 4 - 0 - 5 - 1 100 2026-02-21 15:31:46
114 G e n g a o z o [SR] 3,577,735 2,880 - 5 - 0 - 2 - 1 1,993 2026-02-21 15:30:18
1 Leeroy Jenkins (Fun Time Mix) [AAA] [FC] [SR] 849,400 548 - 0 - 0 - 0 - 0 548 2026-02-21 15:25:50
46 ANiMA [Deemo Cut] [FC] [PB] 2,386,450 1,538 - 2 - 0 - 0 - 0 1,540 2026-02-21 15:23:28
2,160 ANiMA [Deemo Cut] [SR] 6,200 4 - 0 - 0 - 0 - 0 4 2026-02-21 15:21:25
88,451 Spontaneous Hydroxide [PB] 189,550 119 - 4 - 0 - 0 - 0 123 2026-02-21 15:18:46
123,692 Spontaneous Hydroxide [SR] 7,750 5 - 0 - 0 - 0 - 0 5 2026-02-21 15:17:46
6 Winnipeg As Mandatory Scat Feed [SR] 5,813,325 5,603 - 30 - 1 - 5 - 4 2,725 2026-02-21 15:16:27
93 J-CORE SLi//CER Technique [SR] 2,353,180 2,297 - 17 - 1 - 6 - 2 1,087 2026-02-21 15:09:20
18 NASTYWERKKKK! [SR] 1,581,155 1,730 - 1 - 0 - 2 - 0 630 2026-02-21 15:05:50
77 floating point (Drumcorps Remix) [PB] 2,779,510 2,684 - 12 - 0 - 9 - 10 1,303 2026-02-21 15:02:10
843 floating point (Drumcorps Remix) 33,170 22 - 0 - 0 - 3 - 0 22 2026-02-21 14:58:28
121 The Bird's Snapshot Lifespan [1.1x] 2,835,585 2,050 - 23 - 2 - 1 - 2 1,702 2026-02-20 23:35:46
41 Clex3 [1.1x] 1,975,545 2,807 - 171 - 2 - 40 - 2 397 2026-02-20 23:30:17
430 Death Piano [PB] 2,302,100 2,317 - 118 - 0 - 18 - 6 1,001 2026-02-20 23:22:05
18,314 Death Piano [PB] 1,453,885 1,009 - 31 - 0 - 5 - 2 892 2026-02-20 23:18:51
335 Illegal Trap [SR] 779,100 501 - 2 - 0 - 0 - 0 503 2026-02-20 23:14:23
643 floating point (Drumcorps Remix) [SR] 244,065 161 - 3 - 0 - 1 - 0 155 2026-02-20 22:57:15
2,497 OWA Raged In Vegas (Fuck Bees) 20,150 13 - 0 - 0 - 0 - 0 13 2026-02-20 22:38:39
198 Shotgun Surgery [SR] 3,083,140 3,094 - 28 - 0 - 4 - 1 1,375 2023-08-26 14:26:55
1,267 Staple on Smile [SR] 333,640 379 - 22 - 0 - 6 - 0 121 2023-06-25 13:24:55
35,662 Death Piano 337,920 220 - 14 - 0 - 3 - 0 214 2023-06-25 11:07:59
29,508 Death Piano [SR] 549,965 432 - 11 - 0 - 2 - 2 310 2023-06-24 19:53:25
200 Adcar 1,452,320 936 - 14 - 0 - 1 - 1 934 2023-06-24 19:44:57
4,722 The Disappearance of Hatsune Miku -Theatrical Version- [PB] 334,865 234 - 10 - 1 - 2 - 1 204 2023-06-24 19:40:55
7,464 The Disappearance of Hatsune Miku -Theatrical Version- 4,650 3 - 0 - 0 - 0 - 0 3 2023-06-24 19:40:21
7,189 The Disappearance of Hatsune Miku -Theatrical Version- 9,300 6 - 0 - 0 - 0 - 0 6 2023-06-24 19:40:16
7,204 The Disappearance of Hatsune Miku -Theatrical Version- 8,990 6 - 0 - 0 - 1 - 0 6 2023-06-24 19:40:08
7,189 The Disappearance of Hatsune Miku -Theatrical Version- 9,300 6 - 0 - 0 - 0 - 0 6 2023-06-24 19:40:00
6,936 The Disappearance of Hatsune Miku -Theatrical Version- [PB] 24,800 16 - 0 - 0 - 0 - 0 16 2023-06-24 19:39:50
7,189 The Disappearance of Hatsune Miku -Theatrical Version- 9,300 6 - 0 - 0 - 0 - 0 6 2023-06-24 19:39:42
7,189 The Disappearance of Hatsune Miku -Theatrical Version- 9,300 6 - 0 - 0 - 0 - 0 6 2023-06-24 19:39:31
7,189 The Disappearance of Hatsune Miku -Theatrical Version- 9,300 6 - 0 - 0 - 0 - 0 6 2023-06-24 19:39:20
6,946 The Disappearance of Hatsune Miku -Theatrical Version- [SR] 22,865 15 - 1 - 0 - 2 - 2 15 2023-06-24 19:39:07
7,764 The Disappearance of Hatsune Miku -Theatrical Version- [SR] 0 0 - 0 - 0 - 0 - 10 0 2023-06-24 19:39:01
7,764 The Disappearance of Hatsune Miku -Theatrical Version- [SR] 0 0 - 0 - 0 - 0 - 10 0 2023-06-24 19:38:58
7,763 The Disappearance of Hatsune Miku -Theatrical Version- [SR] 0 0 - 1 - 0 - 5 - 6 1 2023-06-24 19:38:56
750 OWA Raged In Vegas (Fuck Bees) [SR] 2,152,455 1,378 - 13 - 0 - 0 - 1 1,391 2023-06-24 19:17:12
71 Excuse My Rudeness, but Could You Please RIP? (t+pazolite Remix) [FC] [SR] 4,064,795 2,617 - 5 - 2 - 0 - 2 2,624 2023-06-24 19:08:35
176 Adcar [SR] 1,995,255 1,300 - 25 - 0 - 2 - 0 1,274 2023-06-24 19:05:00
954 Hello (BPM) 2021 [SR] 249,570 232 - 48 - 2 - 14 - 0 113 2023-06-24 19:03:12
123 Mdrqnxtagon [PB] 801,080 797 - 11 - 1 - 3 - 21 361 2023-06-24 19:01:21
123 Mdrqnxtagon [SR] 750,090 786 - 22 - 0 - 4 - 1 313 2023-06-24 19:00:16
644 We Want To Run [PB] 576,615 344 - 75 - 0 - 7 - 2 369 2023-06-24 18:59:08
798 We Want To Run [PB] 18,325 11 - 1 - 0 - 0 - 0 12 2023-06-24 18:57:58
798 We Want To Run [SR] 17,515 9 - 2 - 1 - 0 - 2 12 2023-06-24 18:57:38
199 PEACE BREAKER [SR] 909,170 749 - 26 - 0 - 3 - 0 491 2023-06-24 18:54:01
99 Fur Elise Jam [FC] [PB] 1,431,825 918 - 7 - 0 - 0 - 0 925 2023-06-24 18:52:10
575 Fur Elise Jam [SR] 1,530 1 - 0 - 0 - 0 - 1 1 2023-06-24 18:49:50
255 Smoke Weed Everyday [FC] [SR] 954,250 614 - 2 - 0 - 0 - 0 616 2023-06-24 18:46:47
1